createdAt,value
2018-03-08T00:00:07.527Z,0.00
2018-03-08T00:01:07.521Z,0.00
2018-03-08T00:02:07.520Z,0.00
2018-03-08T00:03:07.513Z,0.00
2018-03-08T00:04:07.507Z,0.00
2018-03-08T00:05:07.498Z,0.00
2018-03-08T00:06:07.496Z,0.00
2018-03-08T00:07:07.489Z,0.00
2018-03-08T00:08:07.488Z,0.00
2018-03-08T00:09:07.477Z,0.00
2018-03-08T00:10:07.473Z,0.00
2018-03-08T00:11:07.467Z,0.00
2018-03-08T00:12:07.462Z,0.00
2018-03-08T00:13:07.456Z,0.00
2018-03-08T00:14:07.452Z,0.00
2018-03-08T00:15:07.446Z,0.00
2018-03-08T00:16:07.440Z,0.00
2018-03-08T00:17:07.435Z,0.00
2018-03-08T00:18:07.429Z,0.00
2018-03-08T00:19:07.424Z,0.00
2018-03-08T00:20:07.418Z,0.00
2018-03-08T00:21:07.412Z,0.00
2018-03-08T00:22:07.408Z,0.00
2018-03-08T00:23:07.400Z,0.00
2018-03-08T00:24:07.396Z,0.00
2018-03-08T00:25:07.389Z,0.00
2018-03-08T00:26:07.384Z,0.00
2018-03-08T00:27:07.382Z,0.00
2018-03-08T00:28:07.377Z,0.00
2018-03-08T00:29:07.368Z,0.00
2018-03-08T00:30:07.362Z,0.00
2018-03-08T00:31:07.357Z,0.00
2018-03-08T00:32:07.351Z,0.00
2018-03-08T00:33:07.346Z,0.00
2018-03-08T00:34:07.340Z,0.00
2018-03-08T00:35:07.335Z,0.00
2018-03-08T00:36:07.330Z,0.00
2018-03-08T00:37:07.322Z,0.00
2018-03-08T00:38:07.320Z,0.00
2018-03-08T00:39:07.314Z,0.00
2018-03-08T00:40:07.307Z,0.00
2018-03-08T00:41:07.304Z,0.00
2018-03-08T00:42:07.296Z,0.00
2018-03-08T00:43:07.289Z,0.00
2018-03-08T00:44:07.284Z,0.00
2018-03-08T00:45:07.283Z,0.00
2018-03-08T00:46:07.273Z,0.00
2018-03-08T00:47:07.272Z,0.00
2018-03-08T00:48:07.263Z,0.00
2018-03-08T00:49:07.258Z,0.00
2018-03-08T00:50:07.249Z,0.00
2018-03-08T00:51:07.244Z,0.00
2018-03-08T00:52:07.238Z,0.00
2018-03-08T00:53:07.231Z,0.00
2018-03-08T00:54:07.226Z,0.00
2018-03-08T00:55:07.220Z,0.00
2018-03-08T00:56:07.216Z,0.00
2018-03-08T00:57:07.212Z,0.00
2018-03-08T00:58:07.203Z,0.00
2018-03-08T00:59:07.200Z,0.00
2018-03-08T01:00:07.191Z,0.00
2018-03-08T01:01:07.185Z,0.00
2018-03-08T01:02:07.187Z,0.00
2018-03-08T01:03:07.174Z,0.00
2018-03-08T01:04:07.169Z,0.00
2018-03-08T01:05:07.163Z,0.00
2018-03-08T01:06:07.157Z,0.00
2018-03-08T01:07:07.150Z,0.00
2018-03-08T01:08:07.146Z,0.00
2018-03-08T01:09:07.139Z,0.00
2018-03-08T01:10:07.134Z,0.00
2018-03-08T01:11:07.128Z,0.00
2018-03-08T01:12:07.122Z,0.00
2018-03-08T01:13:07.116Z,0.00
2018-03-08T01:14:07.110Z,0.00
2018-03-08T01:15:07.107Z,0.00
2018-03-08T01:16:07.100Z,0.00
2018-03-08T01:17:07.093Z,0.00
2018-03-08T01:18:07.088Z,0.00
2018-03-08T01:19:07.083Z,0.00
2018-03-08T01:20:07.078Z,0.00
2018-03-08T01:21:07.069Z,0.00
2018-03-08T01:22:07.064Z,0.00
2018-03-08T01:23:07.058Z,0.00
2018-03-08T01:24:07.053Z,0.00
2018-03-08T01:25:07.047Z,0.00
2018-03-08T01:26:07.041Z,0.00
2018-03-08T01:27:07.035Z,0.00
2018-03-08T01:28:07.029Z,0.00
2018-03-08T01:29:07.023Z,0.00
2018-03-08T01:30:07.018Z,0.00
2018-03-08T01:31:07.010Z,0.00
2018-03-08T01:32:07.010Z,0.00
2018-03-08T01:33:06.999Z,0.00
2018-03-08T01:34:06.994Z,0.00
2018-03-08T01:35:06.988Z,0.00
2018-03-08T01:36:06.986Z,0.00
2018-03-08T01:37:06.976Z,0.00
2018-03-08T01:38:06.971Z,0.00
2018-03-08T01:39:06.964Z,0.00
2018-03-08T01:41:06.952Z,0.00
2018-03-08T01:42:06.948Z,0.00
2018-03-08T01:43:06.942Z,0.00
2018-03-08T01:44:06.936Z,0.00
2018-03-08T01:45:06.929Z,0.00
2018-03-08T01:46:06.923Z,0.00
2018-03-08T01:47:06.917Z,0.00
2018-03-08T01:48:06.912Z,0.00
2018-03-08T01:49:06.907Z,0.00
2018-03-08T01:50:06.898Z,0.00
2018-03-08T01:51:06.894Z,0.00
2018-03-08T01:52:06.889Z,0.00
2018-03-08T01:53:06.882Z,0.00
2018-03-08T01:54:06.878Z,0.00
2018-03-08T01:55:06.871Z,0.00
2018-03-08T01:56:06.866Z,0.00
2018-03-08T01:57:06.860Z,0.00
2018-03-08T01:58:06.853Z,0.00
2018-03-08T01:59:06.849Z,0.00
2018-03-08T02:00:06.842Z,0.00
2018-03-08T02:01:06.837Z,0.00
2018-03-08T02:02:06.831Z,0.00
2018-03-08T02:03:06.830Z,0.00
2018-03-08T02:04:06.821Z,0.00
2018-03-08T02:05:06.815Z,0.00
2018-03-08T02:06:06.810Z,0.00
2018-03-08T02:07:06.805Z,0.00
2018-03-08T02:08:06.800Z,0.00
2018-03-08T02:09:06.794Z,0.00
2018-03-08T02:10:06.787Z,0.00
2018-03-08T02:11:06.782Z,0.00
2018-03-08T02:12:06.777Z,0.00
2018-03-08T02:13:06.771Z,0.00
2018-03-08T02:14:06.765Z,0.00
2018-03-08T02:15:06.759Z,0.00
2018-03-08T02:16:06.755Z,0.00
2018-03-08T02:17:06.749Z,0.00
2018-03-08T02:18:06.742Z,0.00
2018-03-08T02:19:06.738Z,0.00
2018-03-08T02:20:06.733Z,0.00
2018-03-08T02:21:06.727Z,0.00
2018-03-08T02:22:06.722Z,0.00
2018-03-08T02:23:06.715Z,0.00
2018-03-08T02:24:06.711Z,0.00
2018-03-08T02:25:06.704Z,0.00
2018-03-08T02:26:06.699Z,0.00
2018-03-08T02:27:06.694Z,0.00
2018-03-08T02:28:06.688Z,0.00
2018-03-08T02:29:06.682Z,0.00
2018-03-08T02:30:06.693Z,0.00
2018-03-08T02:31:06.674Z,0.00
2018-03-08T02:32:06.668Z,0.00
2018-03-08T02:33:06.659Z,0.00
2018-03-08T02:34:06.655Z,0.00
2018-03-08T02:35:06.653Z,0.00
2018-03-08T02:36:06.644Z,0.00
2018-03-08T02:37:06.637Z,0.00
2018-03-08T02:38:06.631Z,0.00
2018-03-08T02:39:06.626Z,0.00
2018-03-08T02:40:06.619Z,0.00
2018-03-08T02:41:06.614Z,0.00
2018-03-08T02:42:06.609Z,0.00
2018-03-08T02:43:06.603Z,0.00
2018-03-08T02:44:06.595Z,0.00
2018-03-08T02:45:06.590Z,0.00
2018-03-08T02:46:06.585Z,0.00
2018-03-08T02:47:06.580Z,0.00
2018-03-08T02:48:06.576Z,0.00
2018-03-08T02:49:06.568Z,0.00
2018-03-08T02:50:06.564Z,0.00
2018-03-08T02:51:06.562Z,0.00
2018-03-08T02:52:06.551Z,0.00
2018-03-08T02:53:06.545Z,0.00
2018-03-08T02:54:06.545Z,0.00
2018-03-08T02:55:06.536Z,0.00
2018-03-08T02:56:06.529Z,0.00
2018-03-08T02:57:06.521Z,0.00
2018-03-08T02:58:06.515Z,0.00
2018-03-08T02:59:06.513Z,0.00
2018-03-08T03:00:06.505Z,0.00
2018-03-08T03:01:06.499Z,0.00
2018-03-08T03:02:06.495Z,0.00
2018-03-08T03:03:06.489Z,0.00
2018-03-08T03:04:06.483Z,0.00
2018-03-08T03:05:06.477Z,0.00
2018-03-08T03:06:06.470Z,0.00
2018-03-08T03:07:06.465Z,0.00
2018-03-08T03:08:06.462Z,0.00
2018-03-08T03:09:06.453Z,0.00
2018-03-08T03:10:06.447Z,0.00
2018-03-08T03:11:06.456Z,0.00
2018-03-08T03:12:06.436Z,0.00
2018-03-08T03:13:06.428Z,0.00
2018-03-08T03:14:06.424Z,0.00
2018-03-08T03:15:06.419Z,0.00
2018-03-08T03:16:06.415Z,0.00
2018-03-08T03:17:06.406Z,0.00
2018-03-08T03:18:06.401Z,0.00
2018-03-08T03:19:06.395Z,0.00
2018-03-08T03:20:06.391Z,0.00
2018-03-08T03:21:06.385Z,0.00
2018-03-08T03:22:06.379Z,0.00
2018-03-08T03:23:06.374Z,0.00
2018-03-08T03:24:06.368Z,0.00
2018-03-08T03:25:06.364Z,0.00
2018-03-08T03:26:06.357Z,0.00
2018-03-08T03:27:06.352Z,0.00
2018-03-08T03:28:06.346Z,0.00
2018-03-08T03:29:06.340Z,0.00
2018-03-08T03:30:06.335Z,0.00
2018-03-08T03:31:06.333Z,0.00
2018-03-08T03:32:06.324Z,0.00
2018-03-08T03:33:06.319Z,0.00
2018-03-08T03:34:06.313Z,0.00
2018-03-08T03:35:06.306Z,0.00
2018-03-08T03:36:06.303Z,0.00
2018-03-08T03:37:06.295Z,0.00
2018-03-08T03:38:06.291Z,0.00
2018-03-08T03:39:06.284Z,0.00
2018-03-08T03:40:06.279Z,0.00
2018-03-08T03:41:06.273Z,0.00
2018-03-08T03:42:06.267Z,0.00
2018-03-08T03:43:06.261Z,0.00
2018-03-08T03:44:06.257Z,0.00
2018-03-08T03:45:06.252Z,0.00
2018-03-08T03:46:06.247Z,0.00
2018-03-08T03:47:06.238Z,0.00
2018-03-08T03:48:06.233Z,0.00
2018-03-08T03:49:06.226Z,0.00
2018-03-08T03:50:06.222Z,0.00
2018-03-08T03:51:06.219Z,0.00
2018-03-08T03:52:06.211Z,0.00
2018-03-08T03:53:06.204Z,0.00
2018-03-08T03:54:06.198Z,0.00
2018-03-08T03:55:06.193Z,0.00
2018-03-08T03:56:06.187Z,0.00
2018-03-08T03:57:06.182Z,0.00
2018-03-08T03:58:06.176Z,0.00
2018-03-08T03:59:06.169Z,0.00
2018-03-08T04:00:06.164Z,0.00
2018-03-08T04:01:06.158Z,0.00
2018-03-08T04:02:06.152Z,0.00
2018-03-08T04:03:06.146Z,0.00
2018-03-08T04:04:06.141Z,0.00
2018-03-08T04:05:06.137Z,0.00
2018-03-08T04:06:06.128Z,0.00
2018-03-08T04:07:06.122Z,0.00
2018-03-08T04:08:06.118Z,0.00
2018-03-08T04:09:06.109Z,0.00
2018-03-08T04:10:06.103Z,0.00
2018-03-08T04:11:06.097Z,0.00
2018-03-08T04:12:06.092Z,0.00
2018-03-08T04:13:06.085Z,0.00
2018-03-08T04:14:06.079Z,0.00
2018-03-08T04:15:06.074Z,0.00
2018-03-08T04:16:06.068Z,0.00
2018-03-08T04:17:06.061Z,0.00
2018-03-08T04:18:06.056Z,0.00
2018-03-08T04:19:06.053Z,0.00
2018-03-08T04:20:06.047Z,0.00
2018-03-08T04:21:06.039Z,0.00
2018-03-08T04:22:06.033Z,0.00
2018-03-08T04:23:06.028Z,0.00
2018-03-08T04:24:06.021Z,0.00
2018-03-08T04:25:06.016Z,0.00
2018-03-08T04:26:06.013Z,0.00
2018-03-08T04:27:06.005Z,0.00
2018-03-08T04:28:05.998Z,0.00
2018-03-08T04:29:05.993Z,0.00
2018-03-08T04:30:05.988Z,0.00
2018-03-08T04:31:05.981Z,0.00
2018-03-08T04:32:05.976Z,0.00
2018-03-08T04:33:05.970Z,0.00
2018-03-08T04:34:05.965Z,0.00
2018-03-08T04:35:05.959Z,0.00
2018-03-08T04:36:05.951Z,0.00
2018-03-08T04:37:05.949Z,0.00
2018-03-08T04:38:05.940Z,0.00
2018-03-08T04:39:05.935Z,0.00
2018-03-08T04:40:05.930Z,0.00
2018-03-08T04:41:05.929Z,0.00
2018-03-08T04:42:05.919Z,0.00
2018-03-08T04:43:05.912Z,0.00
2018-03-08T04:44:05.907Z,0.00
2018-03-08T04:45:05.900Z,0.00
2018-03-08T04:46:05.898Z,0.00
2018-03-08T04:47:05.890Z,0.00
2018-03-08T04:48:05.885Z,0.00
2018-03-08T04:49:05.877Z,0.00
2018-03-08T04:50:05.873Z,0.00
2018-03-08T04:51:05.867Z,0.00
2018-03-08T04:52:05.862Z,0.00
2018-03-08T04:53:05.854Z,0.00
2018-03-08T04:54:05.849Z,0.00
2018-03-08T04:55:06.014Z,0.00
2018-03-08T04:56:05.837Z,0.00
2018-03-08T04:57:05.830Z,0.00
2018-03-08T04:58:05.824Z,0.00
2018-03-08T04:59:05.819Z,0.00
2018-03-08T05:00:05.815Z,0.00
2018-03-08T05:01:05.808Z,0.00
2018-03-08T05:02:05.800Z,0.00
2018-03-08T05:03:05.794Z,0.00
2018-03-08T05:04:05.789Z,0.00
2018-03-08T05:05:05.784Z,0.00
2018-03-08T05:06:05.780Z,0.00
2018-03-08T05:07:05.773Z,0.00
2018-03-08T05:08:05.766Z,0.00
2018-03-08T05:09:05.759Z,0.00
2018-03-08T05:10:05.759Z,0.00
2018-03-08T05:11:05.748Z,0.00
2018-03-08T05:12:05.742Z,0.00
2018-03-08T05:13:05.735Z,0.00
2018-03-08T05:14:05.730Z,0.00
2018-03-08T05:15:05.724Z,0.00
2018-03-08T05:16:05.719Z,4.00
2018-03-08T05:17:05.712Z,4.00
2018-03-08T05:18:05.707Z,4.00
2018-03-08T05:19:05.705Z,0.00
2018-03-08T05:20:05.695Z,4.00
2018-03-08T05:21:05.688Z,4.00
2018-03-08T05:22:05.683Z,4.00
2018-03-08T05:23:05.677Z,4.00
2018-03-08T05:24:05.672Z,8.00
2018-03-08T05:25:05.665Z,4.00
2018-03-08T05:26:05.660Z,8.00
2018-03-08T05:27:05.654Z,8.00
2018-03-08T05:28:05.649Z,12.00
2018-03-08T05:29:05.643Z,16.00
2018-03-08T05:30:05.638Z,20.00
2018-03-08T05:31:05.631Z,20.00
2018-03-08T05:32:05.625Z,20.00
2018-03-08T05:33:05.620Z,28.00
2018-03-08T05:34:05.613Z,28.00
2018-03-08T05:35:05.615Z,32.00
2018-03-08T05:36:05.602Z,36.00
2018-03-08T05:37:05.596Z,40.00
2018-03-08T05:38:05.590Z,40.00
2018-03-08T05:39:05.585Z,44.00
2018-03-08T05:40:05.595Z,48.00
2018-03-08T05:41:05.572Z,56.00
2018-03-08T05:42:05.567Z,72.00
2018-03-08T05:43:05.561Z,80.00
2018-03-08T05:44:05.555Z,84.00
2018-03-08T05:45:05.553Z,100.00
2018-03-08T05:46:05.544Z,116.00
2018-03-08T05:47:05.543Z,128.00
2018-03-08T05:48:05.537Z,144.00
2018-03-08T05:49:05.527Z,152.00
2018-03-08T05:50:05.520Z,160.00
2018-03-08T05:51:05.516Z,168.00
2018-03-08T05:52:05.510Z,176.00
2018-03-08T05:53:05.504Z,192.00
2018-03-08T05:54:05.497Z,196.00
2018-03-08T05:55:05.494Z,208.00
2018-03-08T05:56:05.486Z,220.00
2018-03-08T05:57:05.485Z,236.00
2018-03-08T05:58:05.474Z,248.00
2018-03-08T05:59:05.469Z,256.00
2018-03-08T06:00:05.465Z,252.00
2018-03-08T06:01:05.456Z,244.00
2018-03-08T06:02:05.451Z,240.00
2018-03-08T06:03:05.445Z,248.00
2018-03-08T06:04:05.439Z,244.00
2018-03-08T06:05:05.434Z,236.00
2018-03-08T06:06:05.427Z,220.00
2018-03-08T06:07:05.422Z,216.00
2018-03-08T06:08:05.417Z,216.00
2018-03-08T06:09:05.410Z,228.00
2018-03-08T06:10:05.405Z,240.00
2018-03-08T06:11:05.400Z,244.00
2018-03-08T06:12:05.394Z,248.00
2018-03-08T06:13:05.388Z,260.00
2018-03-08T06:14:05.382Z,280.00
2018-03-08T06:15:05.377Z,272.00
2018-03-08T06:16:05.372Z,264.00
2018-03-08T06:17:05.366Z,280.00
2018-03-08T06:18:05.358Z,288.00
2018-03-08T06:19:05.355Z,312.00
2018-03-08T06:20:05.350Z,336.00
2018-03-08T06:21:05.342Z,356.00
2018-03-08T06:22:05.337Z,380.00
2018-03-08T06:23:05.331Z,424.00
2018-03-08T06:24:05.325Z,472.00
2018-03-08T06:25:05.319Z,512.00
2018-03-08T06:26:05.315Z,556.00
2018-03-08T06:27:05.311Z,560.00
2018-03-08T06:28:05.304Z,552.00
2018-03-08T06:29:05.300Z,556.00
2018-03-08T06:30:05.290Z,572.00
2018-03-08T06:31:05.288Z,576.00
2018-03-08T06:32:05.281Z,580.00
2018-03-08T06:33:05.275Z,584.00
2018-03-08T06:34:05.268Z,608.00
2018-03-08T06:35:05.263Z,640.00
2018-03-08T06:36:05.256Z,716.00
2018-03-08T06:37:05.251Z,792.00
2018-03-08T06:38:05.245Z,860.00
2018-03-08T06:39:05.240Z,956.00
2018-03-08T06:40:05.233Z,1124.00
2018-03-08T06:41:05.229Z,1296.00
2018-03-08T06:42:05.222Z,1360.00
2018-03-08T06:43:05.218Z,1372.00
2018-03-08T06:44:05.212Z,1460.00
2018-03-08T06:45:05.207Z,1604.00
2018-03-08T06:46:05.201Z,1784.00
2018-03-08T06:47:05.196Z,1948.00
2018-03-08T06:48:05.191Z,2100.00
2018-03-08T06:49:05.184Z,2036.00
2018-03-08T06:50:05.178Z,1864.00
2018-03-08T06:51:05.174Z,1768.00
2018-03-08T06:52:05.169Z,1784.00
2018-03-08T06:53:05.161Z,1940.00
2018-03-08T06:54:05.158Z,2012.00
2018-03-08T06:55:05.152Z,1904.00
2018-03-08T06:56:05.147Z,1972.00
2018-03-08T06:57:05.141Z,2004.00
2018-03-08T06:58:05.134Z,1968.00
2018-03-08T06:59:05.130Z,2740.00
2018-03-08T07:00:05.125Z,2664.00
2018-03-08T07:01:05.118Z,2404.00
2018-03-08T07:02:05.115Z,2540.00
2018-03-08T07:03:05.106Z,2700.00
2018-03-08T07:04:05.102Z,3140.00
2018-03-08T07:05:05.101Z,3376.00
2018-03-08T07:06:05.090Z,2940.00
2018-03-08T07:07:05.085Z,2956.00
2018-03-08T07:08:05.080Z,3076.00
2018-03-08T07:09:05.073Z,3260.00
2018-03-08T07:10:05.069Z,3824.00
2018-03-08T07:11:05.063Z,4284.00
2018-03-08T07:12:05.058Z,4560.00
2018-03-08T07:13:05.051Z,4316.00
2018-03-08T07:14:05.047Z,4892.00
2018-03-08T07:15:05.041Z,5100.00
2018-03-08T07:16:05.084Z,4420.00
2018-03-08T07:17:05.030Z,3468.00
2018-03-08T07:18:05.025Z,4012.00
2018-03-08T07:19:05.021Z,5360.00
2018-03-08T07:20:05.016Z,6340.00
2018-03-08T07:21:05.010Z,6556.00
2018-03-08T07:22:05.005Z,7128.00
2018-03-08T07:23:05.001Z,5064.00
2018-03-08T07:24:04.996Z,32352.00
2018-03-08T07:25:04.990Z,49536.00
2018-03-08T07:26:04.985Z,10376.00
2018-03-08T07:27:04.982Z,8156.00
2018-03-08T07:28:04.978Z,12744.00
2018-03-08T07:29:04.972Z,22048.00
2018-03-08T07:30:04.968Z,9964.00
2018-03-08T07:31:04.964Z,45504.00
2018-03-08T07:32:04.963Z,48576.00
2018-03-08T07:33:04.956Z,30976.00
2018-03-08T07:34:04.953Z,72928.00
2018-03-08T07:35:04.953Z,60960.00
2018-03-08T07:36:04.950Z,8908.00
2018-03-08T07:37:04.946Z,6260.00
2018-03-08T07:38:04.944Z,6236.00
2018-03-08T07:39:04.947Z,5364.00
2018-03-08T07:40:04.942Z,5336.00
2018-03-08T07:41:04.939Z,6260.00
2018-03-08T07:42:04.938Z,6616.00
2018-03-08T07:43:04.936Z,5268.00
2018-03-08T07:44:04.934Z,5236.00
2018-03-08T07:45:05.326Z,5496.00
2018-03-08T07:46:04.928Z,5820.00
2018-03-08T07:47:04.926Z,6388.00
2018-03-08T07:48:04.925Z,7204.00
2018-03-08T07:49:04.922Z,8316.00
2018-03-08T07:50:04.919Z,9424.00
2018-03-08T07:51:04.916Z,9724.00
2018-03-08T07:52:04.914Z,11440.00
2018-03-08T07:53:04.912Z,8364.00
2018-03-08T07:54:04.908Z,8524.00
2018-03-08T07:55:04.910Z,8836.00
2018-03-08T07:56:04.902Z,14600.00
2018-03-08T07:57:04.900Z,16416.00
2018-03-08T07:58:04.897Z,13640.00
2018-03-08T07:59:04.897Z,14124.00
2018-03-08T08:00:04.896Z,13092.00
2018-03-08T08:01:04.890Z,20064.00
2018-03-08T08:02:04.888Z,23520.00
2018-03-08T08:03:04.893Z,24608.00
2018-03-08T08:04:04.886Z,28032.00
2018-03-08T08:05:04.891Z,17920.00
2018-03-08T08:06:04.884Z,11136.00
2018-03-08T08:07:04.884Z,23840.00
2018-03-08T08:08:04.888Z,30784.00
2018-03-08T08:09:04.885Z,28224.00
2018-03-08T08:10:04.883Z,41856.00
2018-03-08T08:11:04.884Z,42272.00
2018-03-08T08:12:04.885Z,22112.00
2018-03-08T08:13:04.885Z,9504.00
2018-03-08T08:14:04.885Z,13600.00
2018-03-08T08:15:04.887Z,44864.00
2018-03-08T08:16:04.891Z,54624.00
2018-03-08T08:17:04.889Z,48736.00
2018-03-08T08:18:04.892Z,58048.00
2018-03-08T08:19:04.893Z,64512.00
2018-03-08T08:20:04.896Z,57024.00
2018-03-08T08:21:04.951Z,39840.00
2018-03-08T08:22:04.900Z,44864.00
2018-03-08T08:23:04.904Z,70560.00
2018-03-08T08:24:04.907Z,53056.00
2018-03-08T08:25:04.910Z,35552.00
2018-03-08T08:26:04.915Z,52736.00
2018-03-08T08:27:04.919Z,53472.00
2018-03-08T08:28:04.923Z,35840.00
2018-03-08T08:29:04.928Z,44480.00
2018-03-08T08:30:04.932Z,42688.00
2018-03-08T08:31:04.942Z,36544.00
2018-03-08T08:32:04.943Z,42912.00
2018-03-08T08:33:04.947Z,42656.00
2018-03-08T08:34:04.953Z,32832.00
2018-03-08T08:35:04.960Z,35296.00
2018-03-08T08:36:04.966Z,34464.00
2018-03-08T08:37:04.968Z,36352.00
2018-03-08T08:38:04.975Z,38976.00
2018-03-08T08:39:04.979Z,34240.00
2018-03-08T08:40:04.987Z,10972.00
2018-03-08T08:41:04.989Z,6596.00
2018-03-08T08:42:04.994Z,6656.00
2018-03-08T08:43:04.999Z,9768.00
2018-03-08T08:44:05.004Z,20256.00
2018-03-08T08:45:05.012Z,20224.00
2018-03-08T08:46:05.011Z,7680.00
2018-03-08T08:47:05.015Z,6292.00
2018-03-08T08:48:05.018Z,6836.00
2018-03-08T08:49:05.021Z,10280.00
2018-03-08T08:50:05.023Z,25472.00
2018-03-08T08:51:05.030Z,40480.00
2018-03-08T08:52:05.033Z,44800.00
2018-03-08T08:53:05.033Z,51616.00
2018-03-08T08:54:05.038Z,52096.00
2018-03-08T08:55:05.042Z,61152.00
2018-03-08T08:56:05.043Z,66976.00
2018-03-08T08:57:05.046Z,65056.00
2018-03-08T08:58:05.053Z,60160.00
2018-03-08T08:59:05.057Z,61856.00
2018-03-08T09:00:05.064Z,66496.00
2018-03-08T09:01:05.069Z,62272.00
2018-03-08T09:02:05.074Z,56128.00
2018-03-08T09:03:05.082Z,53536.00
2018-03-08T09:04:05.089Z,52640.00
2018-03-08T09:05:05.096Z,53664.00
2018-03-08T09:06:05.108Z,56640.00
2018-03-08T09:07:05.111Z,57088.00
2018-03-08T09:08:05.119Z,67360.00
2018-03-08T09:09:05.126Z,64192.00
2018-03-08T09:10:05.135Z,50624.00
2018-03-08T09:11:05.143Z,45856.00
2018-03-08T09:12:05.152Z,52288.00
2018-03-08T09:13:05.161Z,43808.00
2018-03-08T09:14:05.168Z,47200.00
2018-03-08T09:15:05.178Z,33856.00
2018-03-08T09:16:05.185Z,38208.00
2018-03-08T09:17:05.197Z,45376.00
2018-03-08T09:18:05.204Z,20192.00
2018-03-08T09:19:05.213Z,8888.00
2018-03-08T09:20:05.222Z,31744.00
2018-03-08T09:21:05.242Z,48736.00
2018-03-08T09:22:05.236Z,46496.00
2018-03-08T09:23:05.244Z,25536.00
2018-03-08T09:24:05.252Z,7760.00
2018-03-08T09:25:05.260Z,7180.00
2018-03-08T09:26:05.265Z,6580.00
2018-03-08T09:27:05.271Z,10104.00
2018-03-08T09:28:05.277Z,10052.00
2018-03-08T09:29:05.285Z,6356.00
2018-03-08T09:30:05.289Z,10396.00
2018-03-08T09:31:05.297Z,34368.00
2018-03-08T09:32:05.299Z,45344.00
2018-03-08T09:33:05.303Z,17600.00
2018-03-08T09:34:05.309Z,31648.00
2018-03-08T09:35:05.312Z,48832.00
2018-03-08T09:36:05.319Z,36896.00
2018-03-08T09:37:05.323Z,18464.00
2018-03-08T09:38:05.327Z,10064.00
2018-03-08T09:39:05.331Z,9356.00
2018-03-08T09:40:05.338Z,15544.00
2018-03-08T09:41:05.342Z,16820.00
2018-03-08T09:42:05.345Z,11648.00
2018-03-08T09:43:05.349Z,11820.00
2018-03-08T09:44:05.354Z,8948.00
2018-03-08T09:45:05.357Z,9416.00
2018-03-08T09:46:05.361Z,12036.00
2018-03-08T09:47:05.366Z,14752.00
2018-03-08T09:48:05.367Z,18496.00
2018-03-08T09:49:05.370Z,23296.00
2018-03-08T09:50:05.373Z,24896.00
2018-03-08T09:51:05.376Z,22944.00
2018-03-08T09:52:05.382Z,17984.00
2018-03-08T09:53:05.380Z,12832.00
2018-03-08T09:54:05.386Z,11380.00
2018-03-08T09:55:05.384Z,12420.00
2018-03-08T09:56:05.389Z,16928.00
2018-03-08T09:57:05.391Z,25600.00
2018-03-08T09:58:05.393Z,27232.00
2018-03-08T09:59:05.417Z,22528.00
2018-03-08T10:00:05.399Z,28384.00
2018-03-08T10:01:05.403Z,48480.00
2018-03-08T10:02:05.408Z,44384.00
2018-03-08T10:03:05.408Z,21056.00
2018-03-08T10:04:05.412Z,17344.00
2018-03-08T10:05:05.415Z,16384.00
2018-03-08T10:06:05.419Z,17344.00
2018-03-08T10:07:05.436Z,18784.00
2018-03-08T10:08:05.428Z,17120.00
2018-03-08T10:09:05.433Z,18016.00
2018-03-08T10:10:05.439Z,20224.00
2018-03-08T10:11:05.445Z,21248.00
2018-03-08T10:12:05.451Z,22496.00
2018-03-08T10:13:05.670Z,23424.00
2018-03-08T10:14:05.763Z,22272.00
2018-03-08T10:15:05.471Z,24096.00
2018-03-08T10:16:05.477Z,26496.00
2018-03-08T10:17:05.483Z,28288.00
2018-03-08T10:18:05.490Z,34592.00
2018-03-08T10:19:05.499Z,41152.00
2018-03-08T10:20:05.506Z,46688.00
2018-03-08T10:21:05.513Z,49568.00
2018-03-08T10:22:05.522Z,48288.00
2018-03-08T10:23:05.530Z,46656.00
2018-03-08T10:24:05.540Z,47744.00
2018-03-08T10:25:05.549Z,51456.00
2018-03-08T10:26:05.612Z,50880.00
2018-03-08T10:27:05.566Z,50496.00
2018-03-08T10:28:05.576Z,49792.00
2018-03-08T10:29:05.584Z,48960.00
2018-03-08T10:30:05.597Z,49152.00
2018-03-08T10:31:05.605Z,49280.00
2018-03-08T10:32:05.615Z,48576.00
2018-03-08T10:33:05.625Z,46496.00
2018-03-08T10:34:05.635Z,45280.00
2018-03-08T10:35:05.645Z,46304.00
2018-03-08T10:36:05.656Z,45632.00
2018-03-08T10:37:05.665Z,45664.00
2018-03-08T10:38:05.677Z,43168.00
2018-03-08T10:40:05.700Z,46944.00
2018-03-08T10:41:05.779Z,51008.00
2018-03-08T10:42:05.720Z,49600.00
2018-03-08T10:43:05.732Z,24480.00
2018-03-08T10:44:05.742Z,41376.00
2018-03-08T10:45:05.754Z,41632.00
2018-03-08T10:46:05.763Z,40960.00
2018-03-08T10:47:05.775Z,40256.00
2018-03-08T10:48:05.784Z,38432.00
2018-03-08T10:49:05.809Z,36896.00
2018-03-08T10:50:05.807Z,38272.00
2018-03-08T10:51:05.817Z,36512.00
2018-03-08T10:52:05.829Z,36416.00
2018-03-08T10:53:05.840Z,34560.00
2018-03-08T10:54:05.850Z,34464.00
2018-03-08T10:55:05.860Z,34304.00
2018-03-08T10:56:05.872Z,34048.00
2018-03-08T10:57:05.889Z,32000.00
2018-03-08T10:58:05.892Z,32160.00
2018-03-08T10:59:05.902Z,34080.00
2018-03-08T11:00:05.913Z,32864.00
2018-03-08T11:01:05.922Z,30944.00
2018-03-08T11:02:06.213Z,30720.00
2018-03-08T11:03:06.926Z,30272.00
2018-03-08T11:04:05.955Z,23744.00
2018-03-08T11:05:05.996Z,26464.00
2018-03-08T11:06:05.973Z,26688.00
2018-03-08T11:07:05.982Z,30528.00
2018-03-08T11:08:05.993Z,29472.00
2018-03-08T11:09:06.001Z,28416.00
2018-03-08T11:10:06.011Z,28992.00
2018-03-08T11:11:06.021Z,27456.00
2018-03-08T11:12:06.033Z,25312.00
2018-03-08T11:13:06.039Z,24512.00
2018-03-08T11:14:06.049Z,23392.00
2018-03-08T11:15:06.058Z,22240.00
2018-03-08T11:16:06.068Z,20832.00
2018-03-08T11:17:06.077Z,21920.00
2018-03-08T11:18:06.088Z,22272.00
2018-03-08T11:19:06.094Z,19040.00
2018-03-08T11:20:06.103Z,15488.00
2018-03-08T11:21:06.110Z,15520.00
2018-03-08T11:22:06.118Z,17728.00
2018-03-08T11:23:06.133Z,18976.00
2018-03-08T11:24:06.136Z,17632.00
2018-03-08T11:25:06.144Z,21312.00
2018-03-08T11:26:06.154Z,25408.00
2018-03-08T11:27:06.160Z,27200.00
2018-03-08T11:28:06.168Z,30464.00
2018-03-08T11:29:06.174Z,29440.00
2018-03-08T11:30:06.183Z,28448.00
2018-03-08T11:31:06.192Z,20704.00
2018-03-08T11:32:06.199Z,26336.00
2018-03-08T11:33:06.207Z,30272.00
2018-03-08T11:34:06.215Z,23456.00
2018-03-08T11:35:06.223Z,26784.00
2018-03-08T11:36:06.240Z,8124.00
2018-03-08T11:37:06.238Z,10184.00
2018-03-08T11:38:06.246Z,28992.00
2018-03-08T11:39:06.270Z,33472.00
2018-03-08T11:40:06.261Z,33152.00
2018-03-08T11:41:06.271Z,27680.00
2018-03-08T11:42:06.275Z,25408.00
2018-03-08T11:43:06.284Z,27296.00
2018-03-08T11:44:06.294Z,31488.00
2018-03-08T11:45:06.297Z,21536.00
2018-03-08T11:46:06.645Z,20768.00
2018-03-08T11:47:06.314Z,23872.00
2018-03-08T11:48:06.322Z,20384.00
2018-03-08T11:49:06.327Z,18208.00
2018-03-08T11:50:06.335Z,16672.00
2018-03-08T11:51:06.342Z,26400.00
2018-03-08T11:52:06.351Z,27392.00
2018-03-08T11:53:06.355Z,7008.00
2018-03-08T11:54:06.362Z,16288.00
2018-03-08T11:55:06.370Z,18176.00
2018-03-08T11:56:06.378Z,10060.00
2018-03-08T11:57:06.384Z,23104.00
2018-03-08T11:58:06.389Z,25568.00
2018-03-08T11:59:06.397Z,9840.00
2018-03-08T12:00:06.405Z,9536.00
2018-03-08T12:01:06.410Z,10156.00
2018-03-08T12:02:06.418Z,8760.00
2018-03-08T12:03:06.423Z,10256.00
2018-03-08T12:04:06.435Z,8056.00
2018-03-08T12:05:06.435Z,14572.00
2018-03-08T12:06:06.441Z,20160.00
2018-03-08T12:07:06.449Z,13192.00
2018-03-08T12:08:06.453Z,14296.00
2018-03-08T12:09:06.457Z,13968.00
2018-03-08T12:10:06.464Z,11072.00
2018-03-08T12:11:06.476Z,8888.00
2018-03-08T12:12:06.479Z,8032.00
2018-03-08T12:13:06.480Z,7208.00
2018-03-08T12:14:06.488Z,7272.00
2018-03-08T12:15:06.490Z,7192.00
2018-03-08T12:16:06.494Z,7284.00
2018-03-08T12:17:06.525Z,11532.00
2018-03-08T12:18:06.504Z,8308.00
2018-03-08T12:19:06.509Z,8528.00
2018-03-08T12:20:06.515Z,9528.00
2018-03-08T12:21:06.516Z,18048.00
2018-03-08T12:22:06.522Z,17952.00
2018-03-08T12:23:06.529Z,10216.00
2018-03-08T12:24:06.531Z,24672.00
2018-03-08T12:25:06.535Z,16064.00
2018-03-08T12:26:06.539Z,27136.00
2018-03-08T12:27:06.544Z,20832.00
2018-03-08T12:28:06.593Z,20416.00
2018-03-08T12:29:06.553Z,25216.00
2018-03-08T12:30:06.559Z,17600.00
2018-03-08T12:31:06.563Z,15440.00
2018-03-08T12:32:06.572Z,16288.00